sensor_id;sensor_type;location;lat;lon;timestamp;temperature;humidity
11280;DHT22;5696;50.928;6.960;2023-02-17T06:04:20;11.90;99.90
11280;DHT22;5696;50.928;6.960;2023-02-17T06:06:46;11.80;99.90
11280;DHT22;5696;50.928;6.960;2023-02-17T06:09:11;11.90;99.90
11280;DHT22;5696;50.928;6.960;2023-02-17T06:11:37;11.90;99.90
11280;DHT22;5696;50.928;6.960;2023-02-17T06:14:03;11.90;99.90
11280;DHT22;5696;50.928;6.960;2023-02-17T06:16:30;11.90;99.90
11280;DHT22;5696;50.928;6.960;2023-02-17T06:18:55;11.90;99.90
11280;DHT22;5696;50.928;6.960;2023-02-17T06:21:21;11.90;99.90
11280;DHT22;5696;50.928;6.960;2023-02-17T06:23:46;12.00;99.90
11280;DHT22;5696;50.928;6.960;2023-02-17T06:26:12;12.10;99.90
11280;DHT22;5696;50.928;6.960;2023-02-17T06:28:39;12.20;99.90
11280;DHT22;5696;50.928;6.960;2023-02-17T06:31:04;12.30;99.90
11280;DHT22;5696;50.928;6.960;2023-02-17T06:33:30;12.20;99.90
11280;DHT22;5696;50.928;6.960;2023-02-17T06:35:55;12.20;99.90
11280;DHT22;5696;50.928;6.960;2023-02-17T06:38:21;12.10;99.90
11280;DHT22;5696;50.928;6.960;2023-02-17T06:40:47;12.10;99.90
11280;DHT22;5696;50.928;6.960;2023-02-17T06:43:12;12.10;99.90
11280;DHT22;5696;50.928;6.960;2023-02-17T06:45:38;12.20;99.90
11280;DHT22;5696;50.928;6.960;2023-02-17T06:48:03;12.10;99.90
11280;DHT22;5696;50.928;6.960;2023-02-17T06:50:29;12.10;99.90
11280;DHT22;5696;50.928;6.960;2023-02-17T06:52:55;12.10;99.90
11280;DHT22;5696;50.928;6.960;2023-02-17T06:55:20;12.10;99.90
11280;DHT22;5696;50.928;6.960;2023-02-17T06:57:46;12.10;99.90
11280;DHT22;5696;50.928;6.960;2023-02-17T07:00:12;12.10;99.90
11280;DHT22;5696;50.928;6.960;2023-02-17T07:02:38;12.10;99.90
11280;DHT22;5696;50.928;6.960;2023-02-17T07:05:05;12.20;99.90
11280;DHT22;5696;50.928;6.960;2023-02-17T07:07:30;12.20;99.90
11280;DHT22;5696;50.928;6.960;2023-02-17T07:09:56;12.30;99.90
11280;DHT22;5696;50.928;6.960;2023-02-17T07:12:22;12.30;99.90
11280;DHT22;5696;50.928;6.960;2023-02-17T07:14:47;12.30;99.90
11280;DHT22;5696;50.928;6.960;2023-02-17T07:17:13;12.30;99.90
11280;DHT22;5696;50.928;6.960;2023-02-17T07:19:39;12.20;99.90
11280;DHT22;5696;50.928;6.960;2023-02-17T07:22:05;12.20;99.90
11280;DHT22;5696;50.928;6.960;2023-02-17T07:24:31;12.30;99.90
11280;DHT22;5696;50.928;6.960;2023-02-17T07:26:58;12.30;99.90
11280;DHT22;5696;50.928;6.960;2023-02-17T07:29:25;12.30;99.90
11280;DHT22;5696;50.928;6.960;2023-02-17T07:31:51;12.30;99.90
11280;DHT22;5696;50.928;6.960;2023-02-17T07:34:17;12.30;99.90
11280;DHT22;5696;50.928;6.960;2023-02-17T07:36:43;12.40;99.90
11280;DHT22;5696;50.928;6.960;2023-02-17T07:42:30;12.40;99.90
11280;DHT22;5696;50.928;6.960;2023-02-17T07:44:56;12.40;99.90
11280;DHT22;5696;50.928;6.960;2023-02-17T07:47:22;12.50;99.90
11280;DHT22;5696;50.928;6.960;2023-02-17T07:49:47;12.50;99.90
11280;DHT22;5696;50.928;6.960;2023-02-17T07:52:16;12.60;99.90
11280;DHT22;5696;50.928;6.960;2023-02-17T07:54:42;12.70;99.90
11280;DHT22;5696;50.928;6.960;2023-02-17T07:57:07;12.70;99.90
11280;DHT22;5696;50.928;6.960;2023-02-17T07:59:33;12.70;99.90
11280;DHT22;5696;50.928;6.960;2023-02-17T08:01:58;12.80;99.90
11280;DHT22;5696;50.928;6.960;2023-02-17T08:04:24;12.80;99.90
11280;DHT22;5696;50.928;6.960;2023-02-17T08:06:50;12.80;99.90
11280;DHT22;5696;50.928;6.960;2023-02-17T08:09:15;12.80;99.90
11280;DHT22;5696;50.928;6.960;2023-02-17T08:11:59;12.80;99.90
11280;DHT22;5696;50.928;6.960;2023-02-17T08:14:44;12.90;99.90
11280;DHT22;5696;50.928;6.960;2023-02-17T08:17:09;12.90;99.90
11280;DHT22;5696;50.928;6.960;2023-02-17T08:19:35;12.90;99.90
11280;DHT22;5696;50.928;6.960;2023-02-17T08:22:01;12.90;99.90
11280;DHT22;5696;50.928;6.960;2023-02-17T08:24:26;13.00;99.90
11280;DHT22;5696;50.928;6.960;2023-02-17T08:26:52;13.10;99.90
11280;DHT22;5696;50.928;6.960;2023-02-17T08:29:18;13.00;99.90
11280;DHT22;5696;50.928;6.960;2023-02-17T08:31:44;13.10;99.90
11280;DHT22;5696;50.928;6.960;2023-02-17T08:34:11;13.20;99.90
11280;DHT22;5696;50.928;6.960;2023-02-17T08:36:37;13.40;99.90
11280;DHT22;5696;50.928;6.960;2023-02-17T08:39:04;13.40;99.90
11280;DHT22;5696;50.928;6.960;2023-02-17T08:41:35;13.40;99.90
11280;DHT22;5696;50.928;6.960;2023-02-17T08:44:06;13.60;99.90
11280;DHT22;5696;50.928;6.960;2023-02-17T08:46:33;13.70;99.90
11280;DHT22;5696;50.928;6.960;2023-02-17T08:48:59;13.80;99.90
11280;DHT22;5696;50.928;6.960;2023-02-17T08:51:25;13.80;99.90
11280;DHT22;5696;50.928;6.960;2023-02-17T08:53:54;13.90;99.90
11280;DHT22;5696;50.928;6.960;2023-02-17T08:56:23;14.00;99.90
11280;DHT22;5696;50.928;6.960;2023-02-17T08:58:49;14.10;99.90
11280;DHT22;5696;50.928;6.960;2023-02-17T09:01:15;14.30;99.90
11280;DHT22;5696;50.928;6.960;2023-02-17T09:03:43;14.50;99.90
11280;DHT22;5696;50.928;6.960;2023-02-17T09:06:09;14.50;99.90
11280;DHT22;5696;50.928;6.960;2023-02-17T09:08:36;14.60;99.90
11280;DHT22;5696;50.928;6.960;2023-02-17T09:11:04;14.80;99.90
11280;DHT22;5696;50.928;6.960;2023-02-17T09:13:29;15.00;99.90
11280;DHT22;5696;50.928;6.960;2023-02-17T09:15:55;15.10;99.90
11280;DHT22;5696;50.928;6.960;2023-02-17T09:18:21;15.20;99.90
11280;DHT22;5696;50.928;6.960;2023-02-17T09:20:47;15.30;99.90
11280;DHT22;5696;50.928;6.960;2023-02-17T09:23:13;15.40;99.90
11280;DHT22;5696;50.928;6.960;2023-02-17T09:25:39;15.50;99.90
11280;DHT22;5696;50.928;6.960;2023-02-17T09:28:05;15.50;99.90
11280;DHT22;5696;50.928;6.960;2023-02-17T09:30:30;15.70;99.90
11280;DHT22;5696;50.928;6.960;2023-02-17T09:32:58;15.90;99.90
11280;DHT22;5696;50.928;6.960;2023-02-17T09:35:24;15.90;99.90
11280;DHT22;5696;50.928;6.960;2023-02-17T09:37:50;16.10;99.90
11280;DHT22;5696;50.928;6.960;2023-02-17T09:40:39;16.10;99.90
11280;DHT22;5696;50.928;6.960;2023-02-17T09:43:18;16.20;99.90
11280;DHT22;5696;50.928;6.960;2023-02-17T09:45:49;16.50;99.90
11280;DHT22;5696;50.928;6.960;2023-02-17T09:48:18;16.50;99.90
11280;DHT22;5696;50.928;6.960;2023-02-17T09:53:50;16.50;99.90
11280;DHT22;5696;50.928;6.960;2023-02-17T09:56:21;16.70;99.90
11280;DHT22;5696;50.928;6.960;2023-02-17T09:58:54;16.70;99.90
11280;DHT22;5696;50.928;6.960;2023-02-17T10:01:27;16.70;99.90
11280;DHT22;5696;50.928;6.960;2023-02-17T10:03:58;16.80;99.90
11280;DHT22;5696;50.928;6.960;2023-02-17T10:09:21;17.30;99.90
11280;DHT22;5696;50.928;6.960;2023-02-17T10:14:32;17.60;99.90
11280;DHT22;5696;50.928;6.960;2023-02-17T10:17:04;17.30;99.90
11280;DHT22;5696;50.928;6.960;2023-02-17T10:19:35;17.60;99.90
11280;DHT22;5696;50.928;6.960;2023-02-17T10:22:19;17.50;99.90
11280;DHT22;5696;50.928;6.960;2023-02-17T10:24:45;17.70;99.90
11280;DHT22;5696;50.928;6.960;2023-02-17T10:33:01;17.90;99.90
11280;DHT22;5696;50.928;6.960;2023-02-17T10:40:59;17.80;99.90
11280;DHT22;5696;50.928;6.960;2023-02-17T10:43:29;17.90;99.90
11280;DHT22;5696;50.928;6.960;2023-02-17T10:45:56;17.80;99.90
11280;DHT22;5696;50.928;6.960;2023-02-17T10:48:29;17.80;99.90
11280;DHT22;5696;50.928;6.960;2023-02-17T10:50:59;18.00;99.90
11280;DHT22;5696;50.928;6.960;2023-02-17T10:53:29;18.20;99.90
11280;DHT22;5696;50.928;6.960;2023-02-17T10:56:12;18.40;99.90
11280;DHT22;5696;50.928;6.960;2023-02-17T11:01:11;18.40;99.90
11280;DHT22;5696;50.928;6.960;2023-02-17T11:03:38;18.50;99.90
11280;DHT22;5696;50.928;6.960;2023-02-17T11:06:25;18.70;99.90
11280;DHT22;5696;50.928;6.960;2023-02-17T11:08:59;18.40;99.90
11280;DHT22;5696;50.928;6.960;2023-02-17T11:11:28;18.70;99.90
11280;DHT22;5696;50.928;6.960;2023-02-17T11:14:02;18.40;99.90
11280;DHT22;5696;50.928;6.960;2023-02-17T11:16:43;18.40;99.90
11280;DHT22;5696;50.928;6.960;2023-02-17T11:19:29;18.20;99.90
11280;DHT22;5696;50.928;6.960;2023-02-17T11:21:59;18.30;99.90
11280;DHT22;5696;50.928;6.960;2023-02-17T11:24:26;18.30;99.90
11280;DHT22;5696;50.928;6.960;2023-02-17T11:27:08;17.90;99.90
11280;DHT22;5696;50.928;6.960;2023-02-17T11:29:34;17.90;99.90
11280;DHT22;5696;50.928;6.960;2023-02-17T11:34:30;17.80;99.90
11280;DHT22;5696;50.928;6.960;2023-02-17T11:37:23;17.90;99.90
11280;DHT22;5696;50.928;6.960;2023-02-17T11:39:54;17.90;99.90
11280;DHT22;5696;50.928;6.960;2023-02-17T11:42:30;17.80;99.90
11280;DHT22;5696;50.928;6.960;2023-02-17T11:44:58;17.90;99.90
11280;DHT22;5696;50.928;6.960;2023-02-17T11:52:58;17.80;99.90
11280;DHT22;5696;50.928;6.960;2023-02-17T11:58:14;18.50;99.90
11280;DHT22;5696;50.928;6.960;2023-02-17T12:06:46;18.30;99.90
11280;DHT22;5696;50.928;6.960;2023-02-17T12:11:55;18.00;99.90
11280;DHT22;5696;50.928;6.960;2023-02-17T12:23:34;17.90;99.90
11280;DHT22;5696;50.928;6.960;2023-02-17T12:28:57;17.90;99.90
11280;DHT22;5696;50.928;6.960;2023-02-17T12:36:40;17.90;99.90
11280;DHT22;5696;50.928;6.960;2023-02-17T12:39:12;18.00;99.90
11280;DHT22;5696;50.928;6.960;2023-02-17T12:42:28;18.30;99.90
11280;DHT22;5696;50.928;6.960;2023-02-17T12:44:49;18.30;99.90
11280;DHT22;5696;50.928;6.960;2023-02-17T12:49:52;18.10;99.90
11280;DHT22;5696;50.928;6.960;2023-02-17T12:52:31;17.90;99.90
11280;DHT22;5696;50.928;6.960;2023-02-17T12:55:09;17.60;99.90
11280;DHT22;5696;50.928;6.960;2023-02-17T12:57:45;17.90;99.90
11280;DHT22;5696;50.928;6.960;2023-02-17T13:00:26;18.10;99.90
11280;DHT22;5696;50.928;6.960;2023-02-17T13:02:57;18.20;99.90
11280;DHT22;5696;50.928;6.960;2023-02-17T13:08:16;18.00;99.90
11280;DHT22;5696;50.928;6.960;2023-02-17T13:10:43;17.80;99.90
11280;DHT22;5696;50.928;6.960;2023-02-17T13:13:24;17.90;99.90
11280;DHT22;5696;50.928;6.960;2023-02-17T13:16:01;18.10;99.90
11280;DHT22;5696;50.928;6.960;2023-02-17T13:18:29;18.40;99.90
11280;DHT22;5696;50.928;6.960;2023-02-17T13:21:00;18.40;99.90
11280;DHT22;5696;50.928;6.960;2023-02-17T13:23:38;18.50;99.90
11280;DHT22;5696;50.928;6.960;2023-02-17T13:26:13;18.70;99.90
11280;DHT22;5696;50.928;6.960;2023-02-17T13:28:43;18.50;99.90
11280;DHT22;5696;50.928;6.960;2023-02-17T13:31:27;18.40;99.90
11280;DHT22;5696;50.928;6.960;2023-02-17T13:33:57;18.30;99.90
11280;DHT22;5696;50.928;6.960;2023-02-17T13:41:25;18.00;99.90
11280;DHT22;5696;50.928;6.960;2023-02-17T13:43:51;17.90;99.90
11280;DHT22;5696;50.928;6.960;2023-02-17T13:46:23;17.90;99.90
11280;DHT22;5696;50.928;6.960;2023-02-17T13:49:04;18.10;99.90
11280;DHT22;5696;50.928;6.960;2023-02-17T13:51:32;17.80;99.90
11280;DHT22;5696;50.928;6.960;2023-02-17T13:54:08;17.90;99.90
11280;DHT22;5696;50.928;6.960;2023-02-17T13:56:33;17.80;99.90
11280;DHT22;5696;50.928;6.960;2023-02-17T13:59:16;17.60;99.90
11280;DHT22;5696;50.928;6.960;2023-02-17T14:01:43;17.40;99.90
11280;DHT22;5696;50.928;6.960;2023-02-17T14:04:27;17.20;99.90
11280;DHT22;5696;50.928;6.960;2023-02-17T14:06:56;17.00;99.90
11280;DHT22;5696;50.928;6.960;2023-02-17T14:09:31;17.10;99.90
11280;DHT22;5696;50.928;6.960;2023-02-17T14:11:59;16.90;99.90
11280;DHT22;5696;50.928;6.960;2023-02-17T14:14:29;16.80;99.90
11280;DHT22;5696;50.928;6.960;2023-02-17T14:17:07;16.70;99.90
11280;DHT22;5696;50.928;6.960;2023-02-17T14:19:44;16.80;99.90
11280;DHT22;5696;50.928;6.960;2023-02-17T14:25:13;16.60;99.90
11280;DHT22;5696;50.928;6.960;2023-02-17T14:27:47;16.80;99.90
11280;DHT22;5696;50.928;6.960;2023-02-17T14:30:25;16.80;99.90
11280;DHT22;5696;50.928;6.960;2023-02-17T14:35:29;16.80;99.90
11280;DHT22;5696;50.928;6.960;2023-02-17T14:38:09;16.90;99.90
11280;DHT22;5696;50.928;6.960;2023-02-17T14:40:44;16.90;99.90
11280;DHT22;5696;50.928;6.960;2023-02-17T14:43:09;16.70;99.90
11280;DHT22;5696;50.928;6.960;2023-02-17T14:45:35;16.70;99.90
11280;DHT22;5696;50.928;6.960;2023-02-17T14:48:00;16.60;99.90
11280;DHT22;5696;50.928;6.960;2023-02-17T14:50:26;16.60;99.90
11280;DHT22;5696;50.928;6.960;2023-02-17T14:52:52;16.70;99.90
11280;DHT22;5696;50.928;6.960;2023-02-17T14:57:51;16.50;99.90
11280;DHT22;5696;50.928;6.960;2023-02-17T15:00:16;16.40;99.90
11280;DHT22;5696;50.928;6.960;2023-02-17T15:02:42;16.40;99.90
11280;DHT22;5696;50.928;6.960;2023-02-17T15:05:08;16.20;99.90
11280;DHT22;5696;50.928;6.960;2023-02-17T15:07:33;16.10;99.90
11280;DHT22;5696;50.928;6.960;2023-02-17T15:09:59;16.10;99.90
11280;DHT22;5696;50.928;6.960;2023-02-17T15:12:25;16.00;99.90
11280;DHT22;5696;50.928;6.960;2023-02-17T15:14:51;15.90;99.90
11280;DHT22;5696;50.928;6.960;2023-02-17T15:17:16;15.90;99.90
11280;DHT22;5696;50.928;6.960;2023-02-17T15:19:42;15.90;99.90
11280;DHT22;5696;50.928;6.960;2023-02-17T15:22:11;15.80;99.90
11280;DHT22;5696;50.928;6.960;2023-02-17T15:24:38;15.70;99.90
11280;DHT22;5696;50.928;6.960;2023-02-17T15:27:04;15.70;99.90
11280;DHT22;5696;50.928;6.960;2023-02-17T15:29:30;15.60;99.90
11280;DHT22;5696;50.928;6.960;2023-02-17T15:31:59;15.50;99.90
11280;DHT22;5696;50.928;6.960;2023-02-17T15:34:29;15.40;99.90
11280;DHT22;5696;50.928;6.960;2023-02-17T15:36:59;15.40;99.90
11280;DHT22;5696;50.928;6.960;2023-02-17T15:39:25;15.40;99.90
11280;DHT22;5696;50.928;6.960;2023-02-17T15:41:53;15.30;99.90
11280;DHT22;5696;50.928;6.960;2023-02-17T15:44:22;15.40;99.90
11280;DHT22;5696;50.928;6.960;2023-02-17T15:46:53;15.30;99.90
11280;DHT22;5696;50.928;6.960;2023-02-17T15:49:19;15.30;99.90
11280;DHT22;5696;50.928;6.960;2023-02-17T15:51:45;15.30;99.90
11280;DHT22;5696;50.928;6.960;2023-02-17T15:54:11;15.10;99.90
11280;DHT22;5696;50.928;6.960;2023-02-17T15:56:49;15.10;99.90
11280;DHT22;5696;50.928;6.960;2023-02-17T15:59:25;15.00;99.90
11280;DHT22;5696;50.928;6.960;2023-02-17T16:01:52;15.00;99.90
11280;DHT22;5696;50.928;6.960;2023-02-17T16:04:20;14.90;99.90
11280;DHT22;5696;50.928;6.960;2023-02-17T16:06:46;14.90;99.90
11280;DHT22;5696;50.928;6.960;2023-02-17T16:09:12;14.80;99.90
11280;DHT22;5696;50.928;6.960;2023-02-17T16:11:52;14.80;99.90
11280;DHT22;5696;50.928;6.960;2023-02-17T16:14:32;14.80;99.90
11280;DHT22;5696;50.928;6.960;2023-02-17T16:16:58;14.70;99.90
11280;DHT22;5696;50.928;6.960;2023-02-17T16:19:23;14.80;99.90
11280;DHT22;5696;50.928;6.960;2023-02-17T16:21:49;14.70;99.90
11280;DHT22;5696;50.928;6.960;2023-02-17T16:24:15;14.50;99.90
11280;DHT22;5696;50.928;6.960;2023-02-17T16:26:41;14.40;99.90
11280;DHT22;5696;50.928;6.960;2023-02-17T16:29:19;14.40;99.90
11280;DHT22;5696;50.928;6.960;2023-02-17T16:31:46;14.40;99.90
11280;DHT22;5696;50.928;6.960;2023-02-17T16:34:16;14.30;99.90
11280;DHT22;5696;50.928;6.960;2023-02-17T16:36:43;14.30;99.90
11280;DHT22;5696;50.928;6.960;2023-02-17T16:39:15;14.20;99.90
11280;DHT22;5696;50.928;6.960;2023-02-17T16:41:41;14.10;99.90
11280;DHT22;5696;50.928;6.960;2023-02-17T16:44:10;14.10;99.90
11280;DHT22;5696;50.928;6.960;2023-02-17T16:46:36;14.00;99.90
11280;DHT22;5696;50.928;6.960;2023-02-17T16:49:10;14.10;99.90
11280;DHT22;5696;50.928;6.960;2023-02-17T16:51:40;13.90;99.90
11280;DHT22;5696;50.928;6.960;2023-02-17T16:54:06;13.70;99.90
11280;DHT22;5696;50.928;6.960;2023-02-17T16:56:38;13.60;99.90
11280;DHT22;5696;50.928;6.960;2023-02-17T16:59:06;13.40;99.90
11280;DHT22;5696;50.928;6.960;2023-02-17T17:01:31;13.30;99.90
11280;DHT22;5696;50.928;6.960;2023-02-17T17:03:57;13.30;99.90
11280;DHT22;5696;50.928;6.960;2023-02-17T17:06:25;13.20;99.90
11280;DHT22;5696;50.928;6.960;2023-02-17T17:08:52;13.20;99.90
11280;DHT22;5696;50.928;6.960;2023-02-17T17:11:21;13.20;99.90
11280;DHT22;5696;50.928;6.960;2023-02-17T17:13:47;13.20;99.90
11280;DHT22;5696;50.928;6.960;2023-02-17T17:16:15;13.10;99.90
11280;DHT22;5696;50.928;6.960;2023-02-17T17:18:43;13.10;99.90
11280;DHT22;5696;50.928;6.960;2023-02-17T17:21:13;13.10;99.90
11280;DHT22;5696;50.928;6.960;2023-02-17T17:23:39;13.20;99.90
11280;DHT22;5696;50.928;6.960;2023-02-17T17:32:07;13.10;99.90
11280;DHT22;5696;50.928;6.960;2023-02-17T17:34:33;13.10;99.90
11280;DHT22;5696;50.928;6.960;2023-02-17T17:36:59;13.10;99.90
11280;DHT22;5696;50.928;6.960;2023-02-17T17:39:25;13.10;99.90
11280;DHT22;5696;50.928;6.960;2023-02-17T17:41:51;13.10;99.90
11280;DHT22;5696;50.928;6.960;2023-02-17T17:44:17;13.10;99.90
11280;DHT22;5696;50.928;6.960;2023-02-17T17:46:43;13.20;99.90
11280;DHT22;5696;50.928;6.960;2023-02-17T17:49:12;13.20;99.90
11280;DHT22;5696;50.928;6.960;2023-02-17T17:51:38;13.20;99.90
11280;DHT22;5696;50.928;6.960;2023-02-17T17:54:05;13.20;99.90
11280;DHT22;5696;50.928;6.960;2023-02-17T17:56:34;13.20;99.90
11280;DHT22;5696;50.928;6.960;2023-02-17T17:59:00;13.20;99.90
11280;DHT22;5696;50.928;6.960;2023-02-17T18:01:26;13.20;99.90
11280;DHT22;5696;50.928;6.960;2023-02-17T18:03:52;13.10;99.90
11280;DHT22;5696;50.928;6.960;2023-02-17T18:06:22;13.10;99.90
11280;DHT22;5696;50.928;6.960;2023-02-17T18:08:49;13.10;99.90
11280;DHT22;5696;50.928;6.960;2023-02-17T18:11:16;13.10;99.90
11280;DHT22;5696;50.928;6.960;2023-02-17T18:13:45;13.10;99.90
11280;DHT22;5696;50.928;6.960;2023-02-17T18:16:12;13.10;99.90
11280;DHT22;5696;50.928;6.960;2023-02-17T18:18:38;13.10;99.90
11280;DHT22;5696;50.928;6.960;2023-02-17T18:21:04;13.00;99.90
11280;DHT22;5696;50.928;6.960;2023-02-17T18:23:30;13.00;99.90
11280;DHT22;5696;50.928;6.960;2023-02-17T18:25:55;13.10;99.90
11280;DHT22;5696;50.928;6.960;2023-02-17T18:28:21;13.10;99.90
11280;DHT22;5696;50.928;6.960;2023-02-17T18:30:47;13.00;99.90
11280;DHT22;5696;50.928;6.960;2023-02-17T18:33:12;13.00;99.90
11280;DHT22;5696;50.928;6.960;2023-02-17T18:35:39;13.00;99.90
11280;DHT22;5696;50.928;6.960;2023-02-17T18:38:08;13.00;99.90
11280;DHT22;5696;50.928;6.960;2023-02-17T18:40:37;13.00;99.90
11280;DHT22;5696;50.928;6.960;2023-02-17T18:43:02;12.90;99.90
11280;DHT22;5696;50.928;6.960;2023-02-17T18:45:28;12.90;99.90
11280;DHT22;5696;50.928;6.960;2023-02-17T18:47:54;13.00;99.90
11280;DHT22;5696;50.928;6.960;2023-02-17T18:50:20;12.90;99.90
11280;DHT22;5696;50.928;6.960;2023-02-17T18:52:46;12.90;99.90
11280;DHT22;5696;50.928;6.960;2023-02-17T18:55:12;12.90;99.90
11280;DHT22;5696;50.928;6.960;2023-02-17T18:57:38;12.90;99.90
11280;DHT22;5696;50.928;6.960;2023-02-17T19:00:05;12.90;99.90
11280;DHT22;5696;50.928;6.960;2023-02-17T19:02:35;12.90;99.90
11280;DHT22;5696;50.928;6.960;2023-02-17T19:05:00;12.90;99.90
11280;DHT22;5696;50.928;6.960;2023-02-17T19:07:26;12.90;99.90
11280;DHT22;5696;50.928;6.960;2023-02-17T19:09:51;12.90;99.90
11280;DHT22;5696;50.928;6.960;2023-02-17T19:12:19;12.90;99.90
11280;DHT22;5696;50.928;6.960;2023-02-17T19:14:45;12.90;99.90
11280;DHT22;5696;50.928;6.960;2023-02-17T19:17:12;12.80;99.90
11280;DHT22;5696;50.928;6.960;2023-02-17T19:19:39;12.90;99.90
11280;DHT22;5696;50.928;6.960;2023-02-17T19:22:05;12.80;99.90
11280;DHT22;5696;50.928;6.960;2023-02-17T19:24:37;12.90;99.90
11280;DHT22;5696;50.928;6.960;2023-02-17T19:27:03;12.80;99.90
11280;DHT22;5696;50.928;6.960;2023-02-17T19:29:29;12.80;99.90
11280;DHT22;5696;50.928;6.960;2023-02-17T19:31:59;12.70;99.90
11280;DHT22;5696;50.928;6.960;2023-02-17T19:34:26;12.80;99.90
11280;DHT22;5696;50.928;6.960;2023-02-17T19:36:52;12.80;99.90
11280;DHT22;5696;50.928;6.960;2023-02-17T19:39:18;12.70;99.90
11280;DHT22;5696;50.928;6.960;2023-02-17T19:41:44;12.70;99.90
11280;DHT22;5696;50.928;6.960;2023-02-17T19:44:10;12.70;99.90
11280;DHT22;5696;50.928;6.960;2023-02-17T19:46:36;12.80;99.90
11280;DHT22;5696;50.928;6.960;2023-02-17T19:49:03;12.70;99.90
11280;DHT22;5696;50.928;6.960;2023-02-17T19:51:29;12.70;99.90
11280;DHT22;5696;50.928;6.960;2023-02-17T19:53:58;12.70;99.90
11280;DHT22;5696;50.928;6.960;2023-02-17T19:56:26;12.70;99.90
11280;DHT22;5696;50.928;6.960;2023-02-17T19:58:52;12.70;99.90
11280;DHT22;5696;50.928;6.960;2023-02-17T20:01:25;12.70;99.90
11280;DHT22;5696;50.928;6.960;2023-02-17T20:03:52;12.60;99.90
11280;DHT22;5696;50.928;6.960;2023-02-17T20:06:26;12.60;99.90
11280;DHT22;5696;50.928;6.960;2023-02-17T20:08:54;12.60;99.90
11280;DHT22;5696;50.928;6.960;2023-02-17T20:11:20;12.60;99.90
11280;DHT22;5696;50.928;6.960;2023-02-17T20:13:46;12.50;99.90
11280;DHT22;5696;50.928;6.960;2023-02-17T20:16:14;12.50;99.90
11280;DHT22;5696;50.928;6.960;2023-02-17T20:18:42;12.50;99.90
11280;DHT22;5696;50.928;6.960;2023-02-17T20:21:10;12.50;99.90
11280;DHT22;5696;50.928;6.960;2023-02-17T20:23:35;12.50;99.90
11280;DHT22;5696;50.928;6.960;2023-02-17T20:26:11;12.50;99.90
11280;DHT22;5696;50.928;6.960;2023-02-17T20:28:37;12.60;99.90
11280;DHT22;5696;50.928;6.960;2023-02-17T20:31:03;12.60;99.90
11280;DHT22;5696;50.928;6.960;2023-02-17T20:33:30;12.60;99.90
11280;DHT22;5696;50.928;6.960;2023-02-17T20:35:55;12.50;99.90
11280;DHT22;5696;50.928;6.960;2023-02-17T20:38:21;12.40;99.90
11280;DHT22;5696;50.928;6.960;2023-02-17T20:40:47;12.40;99.90
11280;DHT22;5696;50.928;6.960;2023-02-17T20:43:12;12.40;99.90
11280;DHT22;5696;50.928;6.960;2023-02-17T20:49:02;12.40;99.90
11280;DHT22;5696;50.928;6.960;2023-02-17T20:51:27;12.40;99.90
11280;DHT22;5696;50.928;6.960;2023-02-17T20:53:53;12.40;99.90
11280;DHT22;5696;50.928;6.960;2023-02-17T20:56:21;12.30;99.90
11280;DHT22;5696;50.928;6.960;2023-02-17T20:58:47;12.30;99.90
11280;DHT22;5696;50.928;6.960;2023-02-17T21:14:24;12.30;99.90
11280;DHT22;5696;50.928;6.960;2023-02-17T21:26:56;12.30;99.90
11280;DHT22;5696;50.928;6.960;2023-02-17T21:29:22;12.30;99.90
11280;DHT22;5696;50.928;6.960;2023-02-17T21:31:48;12.20;99.90
11280;DHT22;5696;50.928;6.960;2023-02-17T21:34:13;12.20;99.90
11280;DHT22;5696;50.928;6.960;2023-02-17T21:36:39;12.20;99.90
11280;DHT22;5696;50.928;6.960;2023-02-17T21:39:04;12.20;99.90
11280;DHT22;5696;50.928;6.960;2023-02-17T21:41:30;12.20;99.90
11280;DHT22;5696;50.928;6.960;2023-02-17T21:43:57;12.20;99.90
11280;DHT22;5696;50.928;6.960;2023-02-17T21:46:42;12.30;99.90
11280;DHT22;5696;50.928;6.960;2023-02-17T21:49:08;12.30;99.90
11280;DHT22;5696;50.928;6.960;2023-02-17T21:51:36;12.30;99.90
11280;DHT22;5696;50.928;6.960;2023-02-17T21:54:03;12.30;99.90
11280;DHT22;5696;50.928;6.960;2023-02-17T21:56:29;12.30;99.90
11280;DHT22;5696;50.928;6.960;2023-02-17T21:58:54;12.40;99.90
11280;DHT22;5696;50.928;6.960;2023-02-17T22:01:21;12.30;99.90
11280;DHT22;5696;50.928;6.960;2023-02-17T22:03:47;12.30;99.90
11280;DHT22;5696;50.928;6.960;2023-02-17T22:06:15;12.40;99.90
11280;DHT22;5696;50.928;6.960;2023-02-17T22:08:41;12.30;99.90
11280;DHT22;5696;50.928;6.960;2023-02-17T22:11:14;12.30;99.90
11280;DHT22;5696;50.928;6.960;2023-02-17T22:13:39;12.30;99.90
11280;DHT22;5696;50.928;6.960;2023-02-17T22:16:05;12.20;99.90
11280;DHT22;5696;50.928;6.960;2023-02-17T22:18:31;12.20;99.90
11280;DHT22;5696;50.928;6.960;2023-02-17T22:20:57;12.10;99.90
11280;DHT22;5696;50.928;6.960;2023-02-17T22:26:45;12.10;99.90
11280;DHT22;5696;50.928;6.960;2023-02-17T22:29:11;12.20;99.90
11280;DHT22;5696;50.928;6.960;2023-02-17T22:31:36;12.20;99.90
11280;DHT22;5696;50.928;6.960;2023-02-17T22:34:05;12.20;99.90
11280;DHT22;5696;50.928;6.960;2023-02-17T22:36:33;12.20;99.90
11280;DHT22;5696;50.928;6.960;2023-02-17T22:39:00;12.30;99.90
11280;DHT22;5696;50.928;6.960;2023-02-17T22:41:25;12.20;99.90
11280;DHT22;5696;50.928;6.960;2023-02-17T22:43:51;12.20;99.90
11280;DHT22;5696;50.928;6.960;2023-02-17T22:46:20;12.20;99.90
11280;DHT22;5696;50.928;6.960;2023-02-17T22:48:47;12.20;99.90
11280;DHT22;5696;50.928;6.960;2023-02-17T22:51:15;12.10;99.90
11280;DHT22;5696;50.928;6.960;2023-02-17T22:53:42;12.10;99.90
11280;DHT22;5696;50.928;6.960;2023-02-17T22:56:08;12.10;99.90
11280;DHT22;5696;50.928;6.960;2023-02-17T22:58:34;12.10;99.90
11280;DHT22;5696;50.928;6.960;2023-02-17T23:01:07;12.10;99.90
11280;DHT22;5696;50.928;6.960;2023-02-17T23:03:33;12.20;99.90
11280;DHT22;5696;50.928;6.960;2023-02-17T23:06:13;12.10;99.90
11280;DHT22;5696;50.928;6.960;2023-02-17T23:08:39;12.10;99.90
11280;DHT22;5696;50.928;6.960;2023-02-17T23:11:07;12.10;99.90
11280;DHT22;5696;50.928;6.960;2023-02-17T23:13:33;12.20;99.90
11280;DHT22;5696;50.928;6.960;2023-02-17T23:15:59;12.10;99.90
11280;DHT22;5696;50.928;6.960;2023-02-17T23:18:25;12.10;99.90
11280;DHT22;5696;50.928;6.960;2023-02-17T23:20:51;12.20;99.90
11280;DHT22;5696;50.928;6.960;2023-02-17T23:23:17;12.20;99.90
11280;DHT22;5696;50.928;6.960;2023-02-17T23:25:51;12.10;99.90
11280;DHT22;5696;50.928;6.960;2023-02-17T23:28:20;12.20;99.90
11280;DHT22;5696;50.928;6.960;2023-02-17T23:30:46;12.20;99.90
11280;DHT22;5696;50.928;6.960;2023-02-17T23:33:13;12.10;99.90
11280;DHT22;5696;50.928;6.960;2023-02-17T23:35:40;12.20;99.90
11280;DHT22;5696;50.928;6.960;2023-02-17T23:38:10;12.20;99.90
11280;DHT22;5696;50.928;6.960;2023-02-17T23:40:36;12.20;99.90
11280;DHT22;5696;50.928;6.960;2023-02-17T23:43:02;12.20;99.90
11280;DHT22;5696;50.928;6.960;2023-02-17T23:45:30;12.10;99.90
11280;DHT22;5696;50.928;6.960;2023-02-17T23:47:55;12.10;99.90
11280;DHT22;5696;50.928;6.960;2023-02-17T23:50:21;12.10;99.90
11280;DHT22;5696;50.928;6.960;2023-02-17T23:52:47;12.20;99.90